createdAt,value
2022-12-15T00:02:18.299Z,2.50
2022-12-15T00:05:04.016Z,3.60
2022-12-15T00:07:49.596Z,3.90
2022-12-15T00:10:34.673Z,4.15
2022-12-15T00:13:20.306Z,4.00
2022-12-15T00:16:06.249Z,3.40
2022-12-15T00:18:52.217Z,4.38
2022-12-15T00:21:37.395Z,4.00
2022-12-15T00:24:22.884Z,4.43
2022-12-15T00:27:08.303Z,4.32
2022-12-15T00:29:53.765Z,4.20
2022-12-15T00:32:39.005Z,5.18
2022-12-15T00:35:24.405Z,4.65
2022-12-15T00:38:10.093Z,5.15
2022-12-15T00:40:36.816Z,5.90
2022-12-15T00:43:03.739Z,6.03
2022-12-15T00:45:48.861Z,6.38
2022-12-15T00:48:15.491Z,6.68
2022-12-15T00:50:54.163Z,5.15
2022-12-15T00:53:41.324Z,6.60
2022-12-15T00:56:27.707Z,7.20
2022-12-15T00:59:13.611Z,6.22
2022-12-15T01:01:59.492Z,6.22
2022-12-15T01:04:45.575Z,6.80
2022-12-15T01:07:30.782Z,6.28
2022-12-15T01:10:15.944Z,6.53
2022-12-15T01:13:01.079Z,7.38
2022-12-15T01:15:46.354Z,8.35
2022-12-15T01:18:31.478Z,7.43
2022-12-15T01:21:06.706Z,8.20
2022-12-15T01:23:34.035Z,4.78
2022-12-15T01:26:01.400Z,6.07
2022-12-15T01:28:28.829Z,6.38
2022-12-15T01:30:55.974Z,4.25
2022-12-15T01:33:23.273Z,6.60
2022-12-15T01:35:57.605Z,4.35
2022-12-15T01:38:24.653Z,4.50
2022-12-15T01:40:55.175Z,4.22
2022-12-15T01:43:31.600Z,4.00
2022-12-15T01:46:07.706Z,3.72
2022-12-15T01:48:58.091Z,3.92
2022-12-15T01:51:33.084Z,3.75
2022-12-15T01:54:07.058Z,3.50
2022-12-15T01:56:48.800Z,2.58
2022-12-15T01:59:19.652Z,3.80
2022-12-15T02:01:50.113Z,3.55
2022-12-15T02:04:21.045Z,3.67
2022-12-15T02:06:47.796Z,3.90
2022-12-15T02:09:15.102Z,3.75
2022-12-15T02:11:41.695Z,2.88
2022-12-15T02:14:10.459Z,4.22
2022-12-15T02:16:37.128Z,3.38
2022-12-15T02:19:29.659Z,3.83
2022-12-15T02:22:18.251Z,3.58
2022-12-15T02:25:22.612Z,4.18
2022-12-15T02:27:59.286Z,4.20
2022-12-15T02:30:38.522Z,4.03
2022-12-15T02:33:22.205Z,4.05
2022-12-15T02:36:25.847Z,4.40
2022-12-15T02:38:52.747Z,4.13
2022-12-15T02:41:33.060Z,5.32
2022-12-15T02:44:01.282Z,4.53
2022-12-15T02:46:49.774Z,4.55
2022-12-15T02:49:42.219Z,3.95
2022-12-15T02:52:27.048Z,5.63
2022-12-15T02:55:13.473Z,4.03
2022-12-15T02:57:40.158Z,4.72
2022-12-15T03:00:09.551Z,4.43
2022-12-15T03:02:39.049Z,4.43
2022-12-15T03:05:06.525Z,4.97
2022-12-15T03:07:33.350Z,5.72
2022-12-15T03:10:03.931Z,5.78
2022-12-15T03:12:31.770Z,4.88
2022-12-15T03:14:58.422Z,5.97
2022-12-15T03:17:25.078Z,5.90
2022-12-15T03:19:51.762Z,6.60
2022-12-15T03:22:18.523Z,7.55
2022-12-15T03:24:45.223Z,6.68
2022-12-15T03:27:11.918Z,6.50
2022-12-15T03:29:38.655Z,7.18
2022-12-15T03:32:05.687Z,6.22
2022-12-15T03:34:32.551Z,7.68
2022-12-15T03:36:59.327Z,6.90
2022-12-15T03:39:26.086Z,8.00
2022-12-15T03:41:52.779Z,8.02
2022-12-15T03:44:19.430Z,8.68
2022-12-15T03:46:46.040Z,8.15
2022-12-15T03:49:12.662Z,8.95
2022-12-15T03:51:39.315Z,9.60
2022-12-15T03:54:06.304Z,8.68
2022-12-15T03:56:33.238Z,8.90
2022-12-15T03:58:59.901Z,9.55
2022-12-15T04:01:29.883Z,10.20
2022-12-15T04:04:00.962Z,9.90
2022-12-15T04:06:29.454Z,10.23
2022-12-15T04:08:56.104Z,11.48
2022-12-15T04:11:22.768Z,16.10
2022-12-15T04:13:49.469Z,13.40
2022-12-15T04:16:19.828Z,12.80
2022-12-15T04:19:07.480Z,11.88
2022-12-15T04:21:34.108Z,12.57
2022-12-15T04:24:19.601Z,12.57
2022-12-15T04:27:04.757Z,12.48
2022-12-15T04:29:50.008Z,14.27
2022-12-15T04:32:35.330Z,11.02
2022-12-15T04:35:20.779Z,17.73
2022-12-15T04:38:05.967Z,14.10
2022-12-15T04:40:51.516Z,15.73
2022-12-15T04:43:36.920Z,13.27
2022-12-15T04:46:22.390Z,11.38
2022-12-15T04:49:07.683Z,12.05
2022-12-15T04:51:52.912Z,12.70
2022-12-15T04:54:38.084Z,11.55
2022-12-15T04:57:23.468Z,10.73
2022-12-15T05:00:08.579Z,13.10
2022-12-15T05:02:53.810Z,11.82
2022-12-15T05:05:39.241Z,11.73
2022-12-15T05:08:24.886Z,12.30
2022-12-15T05:11:10.204Z,12.43
2022-12-15T05:13:55.511Z,11.20
2022-12-15T05:16:41.061Z,9.13
2022-12-15T05:19:26.283Z,11.48
2022-12-15T05:22:11.723Z,11.30
2022-12-15T05:24:56.792Z,12.57
2022-12-15T05:27:42.002Z,11.95
2022-12-15T05:30:28.809Z,12.43
2022-12-15T05:32:55.477Z,10.75
2022-12-15T05:35:22.142Z,16.20
2022-12-15T05:37:48.808Z,11.85
2022-12-15T05:40:15.487Z,11.55
2022-12-15T05:42:42.168Z,15.13
2022-12-15T05:45:10.307Z,11.57
2022-12-15T05:47:37.024Z,33.78
2022-12-15T05:50:03.895Z,12.90
2022-12-15T05:52:30.554Z,13.00
2022-12-15T05:54:57.209Z,12.43
2022-12-15T05:57:23.919Z,9.70
2022-12-15T05:59:50.584Z,12.18
2022-12-15T06:02:17.361Z,13.07
2022-12-15T06:04:44.349Z,12.90
2022-12-15T06:07:11.061Z,11.77
2022-12-15T06:09:37.712Z,15.18
2022-12-15T06:12:04.599Z,13.27
2022-12-15T06:14:31.340Z,12.95
2022-12-15T06:16:58.918Z,13.80
2022-12-15T06:19:25.632Z,12.60
2022-12-15T06:21:52.258Z,12.60
2022-12-15T06:24:18.934Z,13.32
2022-12-15T06:26:45.895Z,13.95
2022-12-15T06:29:13.332Z,14.18
2022-12-15T06:31:40.818Z,14.32
2022-12-15T06:34:11.174Z,15.90
2022-12-15T06:36:37.983Z,14.90
2022-12-15T06:39:06.357Z,15.95
2022-12-15T06:41:33.341Z,17.23
2022-12-15T06:44:00.736Z,18.00
2022-12-15T06:46:29.041Z,18.88
2022-12-15T06:48:56.394Z,18.08
2022-12-15T06:51:23.238Z,18.25
2022-12-15T06:53:51.012Z,19.55
2022-12-15T06:56:33.692Z,19.70
2022-12-15T06:59:02.005Z,22.17
2022-12-15T07:01:29.751Z,21.88
2022-12-15T07:03:57.393Z,21.15
2022-12-15T07:06:24.264Z,21.65
2022-12-15T07:08:53.438Z,21.17
2022-12-15T07:11:21.545Z,19.75
2022-12-15T07:13:52.902Z,19.38
2022-12-15T07:16:21.318Z,17.67
2022-12-15T07:18:48.105Z,17.60
2022-12-15T07:21:15.095Z,16.92
2022-12-15T07:23:58.115Z,16.30
2022-12-15T07:26:25.821Z,15.00
2022-12-15T07:28:54.031Z,15.43
2022-12-15T07:31:21.181Z,15.32
2022-12-15T07:33:48.567Z,14.88
2022-12-15T07:36:15.628Z,16.42
2022-12-15T07:38:42.375Z,17.38
2022-12-15T07:41:10.262Z,17.08
2022-12-15T07:43:37.958Z,16.08
2022-12-15T07:46:05.789Z,17.27
2022-12-15T07:48:33.262Z,16.40
2022-12-15T07:51:10.995Z,17.13
2022-12-15T07:53:44.363Z,16.95
2022-12-15T07:56:11.145Z,17.42
2022-12-15T07:58:38.704Z,18.63
2022-12-15T08:01:08.105Z,17.98
2022-12-15T08:03:36.470Z,17.70
2022-12-15T08:06:11.413Z,17.70
2022-12-15T08:08:38.708Z,16.30
2022-12-15T08:11:10.022Z,17.02
2022-12-15T08:16:24.293Z,20.35
2022-12-15T08:18:51.308Z,21.83
2022-12-15T08:21:17.988Z,17.15
2022-12-15T08:23:46.027Z,17.88
2022-12-15T08:26:14.702Z,17.48
2022-12-15T08:28:42.000Z,18.42
2022-12-15T08:31:14.618Z,18.92
2022-12-15T08:33:41.492Z,17.48
2022-12-15T08:36:10.356Z,17.27
2022-12-15T08:38:38.766Z,18.17
2022-12-15T08:41:10.836Z,19.85
2022-12-15T08:43:42.510Z,16.88
2022-12-15T08:46:10.967Z,20.23
2022-12-15T08:48:37.694Z,19.88
2022-12-15T08:51:05.108Z,20.65
2022-12-15T08:53:32.340Z,19.45
2022-12-15T08:56:07.044Z,21.90
2022-12-15T08:58:34.247Z,21.80
2022-12-15T09:01:06.557Z,21.00
2022-12-15T09:03:35.173Z,18.50
2022-12-15T09:06:07.606Z,18.02
2022-12-15T09:08:36.018Z,17.00
2022-12-15T09:11:03.122Z,16.45
2022-12-15T09:13:30.452Z,14.15
2022-12-15T09:16:11.011Z,11.95
2022-12-15T09:18:38.233Z,10.07
2022-12-15T09:21:06.673Z,10.80
2022-12-15T09:23:34.419Z,10.10
2022-12-15T09:26:02.779Z,9.63
2022-12-15T09:28:29.936Z,8.63
2022-12-15T09:31:07.801Z,7.68
2022-12-15T09:33:35.418Z,7.10
2022-12-15T09:36:03.641Z,6.25
2022-12-15T09:38:31.179Z,6.72
2022-12-15T09:40:57.979Z,9.00
2022-12-15T09:43:36.352Z,6.40
2022-12-15T09:46:11.931Z,5.65
2022-12-15T09:48:44.680Z,6.03
2022-12-15T09:51:15.404Z,5.47
2022-12-15T09:53:54.828Z,5.22
2022-12-15T09:56:29.024Z,5.32
2022-12-15T09:58:57.500Z,5.07
2022-12-15T10:01:38.510Z,4.80
2022-12-15T10:04:50.843Z,5.35
2022-12-15T10:10:25.741Z,5.85
2022-12-15T10:13:01.725Z,6.38
2022-12-15T10:15:33.271Z,6.50
2022-12-15T10:18:05.270Z,5.25
2022-12-15T10:20:32.900Z,6.53
2022-12-15T10:23:02.959Z,6.25
2022-12-15T10:25:33.345Z,7.20
2022-12-15T10:28:24.640Z,6.13
2022-12-15T10:30:59.229Z,6.03
2022-12-15T10:33:36.086Z,5.18
2022-12-15T10:36:12.511Z,6.63
2022-12-15T10:38:42.623Z,6.53
2022-12-15T10:41:19.861Z,6.20
2022-12-15T10:43:50.204Z,7.35
2022-12-15T10:46:20.402Z,7.43
2022-12-15T10:48:52.153Z,8.57
2022-12-15T10:51:50.918Z,7.85
2022-12-15T10:54:18.974Z,8.23
2022-12-15T10:56:57.208Z,9.50
2022-12-15T10:59:33.133Z,9.15
2022-12-15T11:02:24.299Z,9.10
2022-12-15T11:05:16.694Z,9.18
2022-12-15T11:07:54.985Z,8.52
2022-12-15T11:10:52.491Z,8.70
2022-12-15T11:13:21.266Z,6.20
2022-12-15T11:15:54.965Z,6.68
2022-12-15T11:18:45.739Z,6.80
2022-12-15T11:21:33.507Z,7.70
2022-12-15T11:24:16.889Z,7.38
2022-12-15T11:26:46.938Z,8.10
2022-12-15T11:29:21.807Z,7.80
2022-12-15T11:31:49.211Z,6.97
2022-12-15T11:34:18.667Z,6.35
2022-12-15T11:37:03.707Z,6.45
2022-12-15T11:39:36.157Z,5.80
2022-12-15T11:42:05.988Z,5.25
2022-12-15T11:45:00.264Z,6.65
2022-12-15T11:47:46.491Z,7.30
2022-12-15T11:50:19.598Z,7.40
2022-12-15T11:53:06.459Z,5.72
2022-12-15T11:55:59.507Z,5.45
2022-12-15T11:59:03.331Z,6.30
2022-12-15T12:01:36.072Z,5.93
2022-12-15T12:04:22.027Z,6.32
2022-12-15T12:07:09.041Z,5.30
2022-12-15T12:09:38.264Z,5.35
2022-12-15T12:15:14.122Z,5.43
2022-12-15T12:17:45.642Z,5.38
2022-12-15T12:20:25.170Z,5.78
2022-12-15T12:23:04.914Z,5.97
2022-12-15T12:25:34.702Z,5.72
2022-12-15T12:28:05.917Z,5.43
2022-12-15T12:30:40.979Z,5.78
2022-12-15T12:33:45.736Z,6.30
2022-12-15T12:36:16.434Z,5.20
2022-12-15T12:38:50.863Z,5.60
2022-12-15T12:41:23.640Z,6.30
2022-12-15T12:44:00.683Z,6.18
2022-12-15T12:46:49.044Z,6.15
2022-12-15T12:49:30.707Z,5.85
2022-12-15T12:52:00.318Z,5.72
2022-12-15T12:54:36.185Z,6.25
2022-12-15T12:57:44.091Z,6.93
2022-12-15T13:00:18.765Z,6.65
2022-12-15T13:02:50.895Z,5.70
2022-12-15T13:05:33.822Z,5.63
2022-12-15T13:08:06.636Z,5.45
2022-12-15T13:10:45.509Z,6.30
2022-12-15T13:13:29.458Z,5.85
2022-12-15T13:16:28.712Z,6.18
2022-12-15T13:19:04.664Z,6.15
2022-12-15T13:21:44.011Z,6.18
2022-12-15T13:24:37.493Z,7.22
2022-12-15T13:27:17.369Z,6.43
2022-12-15T13:30:04.293Z,8.70
2022-12-15T13:32:37.928Z,6.15
2022-12-15T13:35:13.555Z,7.18
2022-12-15T13:37:53.589Z,5.78
2022-12-15T13:40:23.754Z,6.28
2022-12-15T13:42:58.939Z,6.70
2022-12-15T13:45:50.637Z,6.15
2022-12-15T13:48:22.562Z,5.78
2022-12-15T13:51:11.728Z,6.10
2022-12-15T13:53:44.297Z,5.85
2022-12-15T13:56:39.583Z,6.00
2022-12-15T13:59:23.166Z,6.85
2022-12-15T14:01:51.913Z,6.57
2022-12-15T14:04:19.433Z,7.90
2022-12-15T14:06:55.237Z,7.95
2022-12-15T14:09:26.034Z,7.85
2022-12-15T14:11:54.214Z,7.40
2022-12-15T14:14:27.841Z,7.82
2022-12-15T14:17:15.387Z,7.70
2022-12-15T14:19:51.037Z,8.05
2022-12-15T14:22:34.103Z,6.57
2022-12-15T14:25:09.202Z,6.60
2022-12-15T14:27:35.836Z,7.38
2022-12-15T14:30:15.377Z,7.63
2022-12-15T14:32:42.811Z,8.32
2022-12-15T14:35:15.039Z,8.38
2022-12-15T14:37:41.806Z,7.68
2022-12-15T14:40:15.831Z,10.02
2022-12-15T14:42:43.694Z,7.95
2022-12-15T14:45:31.730Z,7.57
2022-12-15T14:48:40.079Z,8.45
2022-12-15T14:50:54.129Z,9.82
2022-12-15T14:53:22.571Z,9.43
2022-12-15T14:55:49.334Z,10.13
2022-12-15T14:58:36.390Z,9.38
2022-12-15T15:01:07.019Z,9.27
2022-12-15T15:03:40.364Z,9.40
2022-12-15T15:06:13.090Z,8.77
2022-12-15T15:08:47.182Z,8.48
2022-12-15T15:11:23.474Z,8.95
2022-12-15T15:13:54.513Z,7.93
2022-12-15T15:16:23.333Z,9.77
2022-12-15T15:18:55.214Z,8.48
2022-12-15T15:21:27.466Z,8.43
2022-12-15T15:24:12.301Z,9.32
2022-12-15T15:26:40.143Z,13.80
2022-12-15T15:29:43.602Z,18.48
2022-12-15T15:32:19.280Z,25.17
2022-12-15T15:34:47.251Z,25.50
2022-12-15T15:37:23.430Z,17.60
2022-12-15T15:39:51.651Z,17.92
2022-12-15T15:42:18.623Z,22.02
2022-12-15T15:44:45.291Z,34.70
2022-12-15T15:47:25.166Z,21.92
2022-12-15T15:49:53.158Z,19.58
2022-12-15T15:52:19.835Z,15.32
2022-12-15T15:54:46.573Z,13.55
2022-12-15T15:57:17.185Z,16.67
2022-12-15T15:59:44.727Z,17.75
2022-12-15T16:02:13.688Z,14.85
2022-12-15T16:04:42.385Z,16.90
2022-12-15T16:07:23.095Z,17.70
2022-12-15T16:09:50.381Z,13.00
2022-12-15T16:12:42.463Z,14.27
2022-12-15T16:15:14.622Z,12.38
2022-12-15T16:17:42.238Z,11.48
2022-12-15T16:20:10.844Z,11.27
2022-12-15T16:22:37.590Z,13.18
2022-12-15T16:25:06.194Z,14.73
2022-12-15T16:27:32.863Z,11.52
2022-12-15T16:29:59.806Z,11.98
2022-12-15T16:32:26.444Z,12.88
2022-12-15T16:34:53.400Z,12.85
2022-12-15T16:37:30.663Z,13.98
2022-12-15T16:39:59.193Z,14.95
2022-12-15T16:42:25.837Z,14.50
2022-12-15T16:44:52.594Z,13.43
2022-12-15T16:47:19.233Z,13.57
2022-12-15T16:49:45.884Z,13.52
2022-12-15T16:52:19.239Z,21.95
2022-12-15T16:54:48.182Z,17.83
2022-12-15T16:59:58.800Z,15.38
2022-12-15T17:02:27.895Z,26.52
2022-12-15T17:07:22.423Z,16.40
2022-12-15T17:09:50.116Z,19.58
2022-12-15T17:12:18.086Z,16.77
2022-12-15T17:14:45.084Z,18.17
2022-12-15T17:17:15.928Z,20.55
2022-12-15T17:19:52.733Z,18.75
2022-12-15T17:22:29.922Z,23.10
2022-12-15T17:24:56.592Z,26.40
2022-12-15T17:27:30.314Z,26.60
2022-12-15T17:29:58.286Z,18.88
2022-12-15T17:32:25.005Z,27.90
2022-12-15T17:34:52.099Z,29.25
2022-12-15T17:37:18.932Z,22.92
2022-12-15T17:39:51.125Z,22.65
2022-12-15T17:42:20.285Z,18.02
2022-12-15T17:44:48.055Z,22.15
2022-12-15T17:47:16.290Z,20.45
2022-12-15T17:49:43.534Z,27.95
2022-12-15T17:52:22.836Z,28.02
2022-12-15T17:54:50.867Z,27.75
2022-12-15T17:57:17.540Z,27.90
2022-12-15T17:59:44.646Z,26.55
2022-12-15T18:02:14.849Z,27.25
2022-12-15T18:04:42.132Z,32.85
2022-12-15T18:07:20.905Z,34.75
2022-12-15T18:09:50.502Z,36.72
2022-12-15T18:12:23.351Z,29.20
2022-12-15T18:14:50.761Z,37.53
2022-12-15T18:17:17.718Z,30.42
2022-12-15T18:19:44.983Z,36.70
2022-12-15T18:22:26.105Z,23.55
2022-12-15T18:24:53.899Z,19.95
2022-12-15T18:27:28.865Z,34.30
2022-12-15T18:29:56.852Z,34.15
2022-12-15T18:32:25.606Z,38.40
2022-12-15T18:34:53.556Z,22.98
2022-12-15T18:37:25.438Z,26.02
2022-12-15T18:39:52.233Z,29.63
2022-12-15T18:42:20.883Z,27.00
2022-12-15T18:44:49.512Z,23.33
2022-12-15T18:47:21.730Z,26.35
2022-12-15T18:49:51.636Z,22.48
2022-12-15T18:52:20.248Z,24.48
2022-12-15T18:54:47.791Z,26.17
2022-12-15T18:57:33.659Z,28.77
2022-12-15T19:00:24.652Z,34.17
2022-12-15T19:02:56.000Z,36.33
2022-12-15T19:05:28.903Z,39.22
2022-12-15T19:08:02.027Z,32.15
2022-12-15T19:10:31.689Z,35.70
2022-12-15T19:12:58.899Z,34.78
2022-12-15T19:15:25.661Z,32.15
2022-12-15T19:18:10.687Z,31.27
2022-12-15T19:20:55.814Z,33.58
2022-12-15T19:23:22.629Z,31.65
2022-12-15T19:25:49.748Z,30.42
2022-12-15T19:28:21.480Z,29.85
2022-12-15T19:30:48.846Z,28.05
2022-12-15T19:33:16.500Z,29.90
2022-12-15T19:35:46.047Z,27.27
2022-12-15T19:38:27.461Z,26.00
2022-12-15T19:40:55.196Z,26.15
2022-12-15T19:43:23.467Z,25.00
2022-12-15T19:45:51.947Z,25.00
2022-12-15T19:48:23.394Z,25.15
2022-12-15T19:50:52.164Z,28.42
2022-12-15T19:53:24.217Z,28.13
2022-12-15T19:55:52.762Z,31.40
2022-12-15T19:58:31.014Z,29.15
2022-12-15T20:01:00.535Z,31.50
2022-12-15T20:03:28.537Z,28.40
2022-12-15T20:05:56.597Z,28.45
2022-12-15T20:08:27.989Z,26.13
2022-12-15T20:10:55.769Z,32.25
2022-12-15T20:13:23.328Z,30.58
2022-12-15T20:15:50.070Z,29.52
2022-12-15T20:18:16.732Z,29.50
2022-12-15T20:20:45.683Z,31.55
2022-12-15T20:23:23.776Z,31.35
2022-12-15T20:25:50.622Z,30.58
2022-12-15T20:28:23.373Z,25.23
2022-12-15T20:30:51.207Z,25.55
2022-12-15T20:33:18.698Z,30.50
2022-12-15T20:35:47.049Z,31.92
2022-12-15T20:38:25.988Z,34.55
2022-12-15T20:40:53.703Z,28.85
2022-12-15T20:43:21.822Z,28.17
2022-12-15T20:46:00.908Z,27.65
2022-12-15T20:48:27.883Z,25.60
2022-12-15T20:50:54.706Z,27.02
2022-12-15T20:53:24.968Z,29.73
2022-12-15T20:55:53.319Z,28.02
2022-12-15T20:58:20.581Z,28.20
2022-12-15T21:00:49.195Z,29.95
2022-12-15T21:03:31.276Z,28.98
2022-12-15T21:05:59.262Z,28.02
2022-12-15T21:08:30.972Z,27.15
2022-12-15T21:11:14.463Z,30.60
2022-12-15T21:13:41.881Z,37.00
2022-12-15T21:16:17.551Z,46.85
2022-12-15T21:21:33.310Z,25.70
2022-12-15T21:24:01.651Z,23.95
2022-12-15T21:26:29.031Z,26.35
2022-12-15T21:29:00.951Z,23.10
2022-12-15T21:31:27.770Z,26.40
2022-12-15T21:33:54.930Z,24.85
2022-12-15T21:36:21.844Z,36.50
2022-12-15T21:38:52.286Z,32.00
2022-12-15T21:41:22.061Z,29.13
2022-12-15T21:43:49.511Z,26.80
2022-12-15T21:46:20.572Z,23.48
2022-12-15T21:49:08.675Z,26.35
2022-12-15T21:51:37.286Z,29.17
2022-12-15T21:54:04.807Z,25.48
2022-12-15T21:56:31.861Z,30.00
2022-12-15T21:58:59.127Z,29.25
2022-12-15T22:01:29.531Z,28.80
2022-12-15T22:03:58.263Z,29.30
2022-12-15T22:06:27.147Z,27.60
2022-12-15T22:08:55.339Z,27.25
2022-12-15T22:11:27.869Z,26.65
2022-12-15T22:13:56.799Z,27.65
2022-12-15T22:16:23.570Z,26.55
2022-12-15T22:18:53.209Z,24.08
2022-12-15T22:21:22.516Z,26.17
2022-12-15T22:23:50.856Z,21.52
2022-12-15T22:26:31.528Z,21.63
2022-12-15T22:29:02.036Z,24.75
2022-12-15T22:31:28.813Z,24.27
2022-12-15T22:33:55.641Z,20.13
2022-12-15T22:36:22.265Z,16.48
2022-12-15T22:38:48.899Z,19.92
2022-12-15T22:41:22.760Z,19.70
2022-12-15T22:43:52.395Z,23.27
2022-12-15T22:46:22.088Z,17.25
2022-12-15T22:48:48.801Z,14.85
2022-12-15T22:51:16.960Z,12.55
2022-12-15T22:53:43.925Z,12.48
2022-12-15T22:56:30.713Z,11.82
2022-12-15T22:59:04.895Z,13.30
2022-12-15T23:01:31.763Z,11.55
2022-12-15T23:03:58.522Z,11.35
2022-12-15T23:06:27.408Z,10.45
2022-12-15T23:08:56.004Z,11.52
2022-12-15T23:11:38.827Z,10.60
2022-12-15T23:14:07.386Z,10.15
2022-12-15T23:16:34.142Z,9.93
2022-12-15T23:19:01.350Z,10.02
2022-12-15T23:21:28.309Z,11.85
2022-12-15T23:23:55.136Z,13.00
2022-12-15T23:26:23.931Z,17.55
2022-12-15T23:28:50.975Z,18.65
2022-12-15T23:31:17.936Z,18.17
2022-12-15T23:33:45.027Z,18.63
2022-12-15T23:36:12.189Z,18.70
2022-12-15T23:38:39.229Z,19.13
2022-12-15T23:41:05.994Z,17.90
2022-12-15T23:43:34.203Z,21.67
2022-12-15T23:46:06.400Z,35.42
2022-12-15T23:48:37.825Z,27.08
2022-12-15T23:51:15.367Z,28.02
2022-12-15T23:53:42.815Z,28.63
2022-12-15T23:56:12.163Z,32.30
2022-12-15T23:58:39.821Z,31.65
